sensor_id;sensor_type;location;lat;lon;timestamp;pressure;altitude;pressure_sealevel;temperature;humidity
76726;BME280;65651;53.154;17.916;2023-03-14T00:00:11;98828.39;;;10.80;78.87
76726;BME280;65651;53.154;17.916;2023-03-14T00:02:59;98826.09;;;10.78;78.78
76726;BME280;65651;53.154;17.916;2023-03-14T00:05:33;98827.74;;;10.76;78.93
76726;BME280;65651;53.154;17.916;2023-03-14T00:08:01;98827.13;;;10.74;78.66
76726;BME280;65651;53.154;17.916;2023-03-14T00:10:28;98835.65;;;10.73;78.76
76726;BME280;65651;53.154;17.916;2023-03-14T00:12:56;98842.67;;;10.74;78.75
76726;BME280;65651;53.154;17.916;2023-03-14T00:15:24;98838.77;;;10.79;78.53
76726;BME280;65651;53.154;17.916;2023-03-14T00:17:57;98839.23;;;10.81;78.72
76726;BME280;65651;53.154;17.916;2023-03-14T00:20:24;98836.90;;;10.81;78.44
76726;BME280;65651;53.154;17.916;2023-03-14T00:22:52;98833.16;;;10.85;78.22
76726;BME280;65651;53.154;17.916;2023-03-14T00:25:19;98837.94;;;10.88;78.15
76726;BME280;65651;53.154;17.916;2023-03-14T00:27:46;98837.33;;;10.91;78.12
76726;BME280;65651;53.154;17.916;2023-03-14T00:30:16;98833.60;;;10.91;78.25
76726;BME280;65651;53.154;17.916;2023-03-14T00:32:44;98839.65;;;10.92;78.15
76726;BME280;65651;53.154;17.916;2023-03-14T00:35:11;98847.23;;;10.94;77.72
76726;BME280;65651;53.154;17.916;2023-03-14T00:37:38;98847.90;;;10.99;77.49
76726;BME280;65651;53.154;17.916;2023-03-14T00:40:07;98844.39;;;11.04;77.36
76726;BME280;65651;53.154;17.916;2023-03-14T00:42:35;98840.19;;;11.06;77.49
76726;BME280;65651;53.154;17.916;2023-03-14T00:45:03;98833.44;;;11.04;77.37
76726;BME280;65651;53.154;17.916;2023-03-14T00:47:31;98831.08;;;11.04;77.34
76726;BME280;65651;53.154;17.916;2023-03-14T00:49:58;98821.49;;;11.02;77.21
76726;BME280;65651;53.154;17.916;2023-03-14T00:52:25;98814.24;;;11.01;76.89
76726;BME280;65651;53.154;17.916;2023-03-14T00:54:52;98813.96;;;11.03;76.77
76726;BME280;65651;53.154;17.916;2023-03-14T00:57:20;98809.16;;;11.04;76.92
76726;BME280;65651;53.154;17.916;2023-03-14T00:59:47;98805.21;;;11.03;76.87
76726;BME280;65651;53.154;17.916;2023-03-14T01:02:14;98803.80;;;11.04;76.66
76726;BME280;65651;53.154;17.916;2023-03-14T01:04:42;98795.77;;;11.02;76.97
76726;BME280;65651;53.154;17.916;2023-03-14T01:07:10;98787.08;;;10.99;76.57
76726;BME280;65651;53.154;17.916;2023-03-14T01:09:39;98787.21;;;10.95;76.72
76726;BME280;65651;53.154;17.916;2023-03-14T01:12:07;98787.33;;;10.91;76.66
76726;BME280;65651;53.154;17.916;2023-03-14T01:14:34;98794.48;;;10.88;76.68
76726;BME280;65651;53.154;17.916;2023-03-14T01:17:02;98787.63;;;10.83;76.87
76726;BME280;65651;53.154;17.916;2023-03-14T01:19:30;98787.86;;;10.77;76.77
76726;BME280;65651;53.154;17.916;2023-03-14T01:21:57;98783.73;;;10.74;76.75
76726;BME280;65651;53.154;17.916;2023-03-14T01:24:24;98782.25;;;10.70;76.61
76726;BME280;65651;53.154;17.916;2023-03-14T01:26:51;98782.42;;;10.70;76.48
76726;BME280;65651;53.154;17.916;2023-03-14T01:29:19;98784.61;;;10.70;76.62
76726;BME280;65651;53.154;17.916;2023-03-14T01:31:47;98777.56;;;10.66;76.66
76726;BME280;65651;53.154;17.916;2023-03-14T01:34:14;98763.02;;;10.64;76.67
76726;BME280;65651;53.154;17.916;2023-03-14T01:36:41;98760.23;;;10.60;76.75
76726;BME280;65651;53.154;17.916;2023-03-14T01:39:09;98760.10;;;10.55;76.60
76726;BME280;65651;53.154;17.916;2023-03-14T01:41:37;98761.06;;;10.56;76.68
76726;BME280;65651;53.154;17.916;2023-03-14T01:44:05;98761.27;;;10.56;76.68
76726;BME280;65651;53.154;17.916;2023-03-14T01:46:36;98755.55;;;10.55;76.76
76726;BME280;65651;53.154;17.916;2023-03-14T01:54:48;98743.08;;;10.55;76.83
76726;BME280;65651;53.154;17.916;2023-03-14T01:59:54;98733.19;;;10.58;76.96
76726;BME280;65651;53.154;17.916;2023-03-14T02:02:24;98726.02;;;10.55;76.91
76726;BME280;65651;53.154;17.916;2023-03-14T02:04:55;98716.20;;;10.54;76.98
76726;BME280;65651;53.154;17.916;2023-03-14T02:07:57;98709.38;;;10.55;76.86
76726;BME280;65651;53.154;17.916;2023-03-14T02:10:31;98713.19;;;10.50;77.18
76726;BME280;65651;53.154;17.916;2023-03-14T02:13:03;98716.38;;;10.46;77.24
76726;BME280;65651;53.154;17.916;2023-03-14T02:15:46;98711.09;;;10.44;77.34
76726;BME280;65651;53.154;17.916;2023-03-14T02:18:32;98717.19;;;10.44;77.24
76726;BME280;65651;53.154;17.916;2023-03-14T02:21:23;98713.06;;;10.42;77.27
76726;BME280;65651;53.154;17.916;2023-03-14T02:24:12;98717.02;;;10.42;77.56
76726;BME280;65651;53.154;17.916;2023-03-14T02:27:10;98716.61;;;10.41;77.48
76726;BME280;65651;53.154;17.916;2023-03-14T02:29:54;98714.88;;;10.39;77.57
76726;BME280;65651;53.154;17.916;2023-03-14T02:32:25;98721.27;;;10.37;77.65
76726;BME280;65651;53.154;17.916;2023-03-14T02:34:56;98720.02;;;10.40;77.94
76726;BME280;65651;53.154;17.916;2023-03-14T02:40:23;98724.79;;;10.46;77.73
76726;BME280;65651;53.154;17.916;2023-03-14T02:42:51;98722.64;;;10.50;77.95
76726;BME280;65651;53.154;17.916;2023-03-14T02:47:57;98710.46;;;10.60;77.79
76726;BME280;65651;53.154;17.916;2023-03-14T02:50:31;98705.05;;;10.63;77.77
76726;BME280;65651;53.154;17.916;2023-03-14T02:53:03;98712.17;;;10.65;77.85
76726;BME280;65651;53.154;17.916;2023-03-14T02:55:31;98724.17;;;10.68;77.88
76726;BME280;65651;53.154;17.916;2023-03-14T02:58:01;98718.81;;;10.71;77.84
76726;BME280;65651;53.154;17.916;2023-03-14T03:00:29;98726.46;;;10.74;78.15
76726;BME280;65651;53.154;17.916;2023-03-14T03:02:58;98731.46;;;10.79;78.20
76726;BME280;65651;53.154;17.916;2023-03-14T03:05:25;98733.46;;;10.84;78.07
76726;BME280;65651;53.154;17.916;2023-03-14T03:07:52;98739.65;;;10.89;77.88
76726;BME280;65651;53.154;17.916;2023-03-14T03:10:20;98743.17;;;10.92;78.03
76726;BME280;65651;53.154;17.916;2023-03-14T03:12:48;98742.05;;;10.97;77.95
76726;BME280;65651;53.154;17.916;2023-03-14T03:15:15;98741.41;;;10.97;77.93
76726;BME280;65651;53.154;17.916;2023-03-14T03:17:43;98734.69;;;11.01;77.78
76726;BME280;65651;53.154;17.916;2023-03-14T03:20:10;98734.94;;;11.05;77.87
76726;BME280;65651;53.154;17.916;2023-03-14T03:22:39;98728.44;;;11.07;78.13
76726;BME280;65651;53.154;17.916;2023-03-14T03:25:08;98723.10;;;11.08;78.02
76726;BME280;65651;53.154;17.916;2023-03-14T03:27:36;98717.46;;;11.10;77.99
76726;BME280;65651;53.154;17.916;2023-03-14T03:30:05;98717.02;;;11.10;78.04
76726;BME280;65651;53.154;17.916;2023-03-14T03:32:35;98712.77;;;11.11;77.97
76726;BME280;65651;53.154;17.916;2023-03-14T03:35:04;98716.93;;;11.14;78.09
76726;BME280;65651;53.154;17.916;2023-03-14T03:37:33;98720.83;;;11.15;78.06
76726;BME280;65651;53.154;17.916;2023-03-14T03:40:01;98715.02;;;11.17;78.09
76726;BME280;65651;53.154;17.916;2023-03-14T03:42:32;98713.95;;;11.21;78.25
76726;BME280;65651;53.154;17.916;2023-03-14T03:45:00;98719.51;;;11.21;78.51
76726;BME280;65651;53.154;17.916;2023-03-14T03:47:31;98722.96;;;11.17;78.49
76726;BME280;65651;53.154;17.916;2023-03-14T03:49:58;98721.30;;;11.12;78.72
76726;BME280;65651;53.154;17.916;2023-03-14T03:52:25;98707.34;;;11.07;78.98
76726;BME280;65651;53.154;17.916;2023-03-14T03:54:53;98698.02;;;11.01;79.21
76726;BME280;65651;53.154;17.916;2023-03-14T03:57:20;98689.41;;;10.96;79.41
76726;BME280;65651;53.154;17.916;2023-03-14T03:59:47;98673.27;;;10.89;79.47
76726;BME280;65651;53.154;17.916;2023-03-14T04:02:15;98662.04;;;10.81;79.68
76726;BME280;65651;53.154;17.916;2023-03-14T04:04:42;98650.68;;;10.74;79.67
76726;BME280;65651;53.154;17.916;2023-03-14T04:07:09;98640.86;;;10.68;79.71
76726;BME280;65651;53.154;17.916;2023-03-14T04:09:37;98637.72;;;10.63;79.82
76726;BME280;65651;53.154;17.916;2023-03-14T04:12:28;98635.24;;;10.55;79.86
76726;BME280;65651;53.154;17.916;2023-03-14T04:15:04;98633.28;;;10.47;79.93
76726;BME280;65651;53.154;17.916;2023-03-14T04:17:32;98642.38;;;10.42;80.07
76726;BME280;65651;53.154;17.916;2023-03-14T04:19:59;98650.61;;;10.37;80.03
76726;BME280;65651;53.154;17.916;2023-03-14T04:22:34;98646.36;;;10.32;80.12
76726;BME280;65651;53.154;17.916;2023-03-14T04:25:02;98643.02;;;10.28;80.31
76726;BME280;65651;53.154;17.916;2023-03-14T04:27:32;98637.91;;;10.25;80.51
76726;BME280;65651;53.154;17.916;2023-03-14T04:30:01;98635.38;;;10.24;80.47
76726;BME280;65651;53.154;17.916;2023-03-14T04:32:47;98624.79;;;10.22;80.61
76726;BME280;65651;53.154;17.916;2023-03-14T04:35:15;98620.10;;;10.20;80.64
76726;BME280;65651;53.154;17.916;2023-03-14T04:37:43;98615.55;;;10.17;80.63
76726;BME280;65651;53.154;17.916;2023-03-14T04:40:12;98618.13;;;10.14;81.00
76726;BME280;65651;53.154;17.916;2023-03-14T04:42:39;98612.30;;;10.11;80.91
76726;BME280;65651;53.154;17.916;2023-03-14T04:45:07;98610.66;;;10.08;81.11
76726;BME280;65651;53.154;17.916;2023-03-14T04:47:40;98610.39;;;10.06;81.21
76726;BME280;65651;53.154;17.916;2023-03-14T04:50:09;98609.88;;;10.04;81.14
76726;BME280;65651;53.154;17.916;2023-03-14T04:52:37;98615.30;;;10.04;81.47
76726;BME280;65651;53.154;17.916;2023-03-14T04:55:05;98609.80;;;10.03;81.40
76726;BME280;65651;53.154;17.916;2023-03-14T04:57:33;98612.45;;;10.05;81.63
76726;BME280;65651;53.154;17.916;2023-03-14T05:00:00;98612.43;;;10.07;81.64
76726;BME280;65651;53.154;17.916;2023-03-14T05:02:46;98609.73;;;10.08;81.75
76726;BME280;65651;53.154;17.916;2023-03-14T05:05:33;98608.66;;;10.10;81.86
76726;BME280;65651;53.154;17.916;2023-03-14T05:08:35;98608.73;;;10.10;81.87
76726;BME280;65651;53.154;17.916;2023-03-14T05:11:23;98609.48;;;10.10;81.73
76726;BME280;65651;53.154;17.916;2023-03-14T05:13:58;98592.88;;;10.08;81.57
76726;BME280;65651;53.154;17.916;2023-03-14T05:16:45;98592.23;;;10.06;81.65
76726;BME280;65651;53.154;17.916;2023-03-14T05:19:28;98594.35;;;10.02;81.67
76726;BME280;65651;53.154;17.916;2023-03-14T05:22:11;98606.43;;;10.02;81.84
76726;BME280;65651;53.154;17.916;2023-03-14T05:25:08;98618.02;;;10.03;81.60
76726;BME280;65651;53.154;17.916;2023-03-14T05:27:50;98629.48;;;10.04;81.45
76726;BME280;65651;53.154;17.916;2023-03-14T05:30:41;98632.27;;;10.04;81.32
76726;BME280;65651;53.154;17.916;2023-03-14T05:33:37;98614.31;;;10.06;81.05
76726;BME280;65651;53.154;17.916;2023-03-14T05:36:24;98610.46;;;10.08;80.95
76726;BME280;65651;53.154;17.916;2023-03-14T05:39:10;98609.81;;;10.12;80.87
76726;BME280;65651;53.154;17.916;2023-03-14T05:41:37;98603.02;;;10.14;80.82
76726;BME280;65651;53.154;17.916;2023-03-14T05:44:31;98596.11;;;10.18;80.72
76726;BME280;65651;53.154;17.916;2023-03-14T05:47:01;98603.64;;;10.24;80.70
76726;BME280;65651;53.154;17.916;2023-03-14T05:49:43;98600.54;;;10.28;80.57
76726;BME280;65651;53.154;17.916;2023-03-14T05:52:34;98611.80;;;10.29;80.47
76726;BME280;65651;53.154;17.916;2023-03-14T05:55:27;98625.98;;;10.29;80.30
76726;BME280;65651;53.154;17.916;2023-03-14T05:58:03;98619.16;;;10.28;80.29
76726;BME280;65651;53.154;17.916;2023-03-14T06:00:53;98609.80;;;10.28;80.16
76726;BME280;65651;53.154;17.916;2023-03-14T06:03:30;98610.71;;;10.29;79.97
76726;BME280;65651;53.154;17.916;2023-03-14T06:05:58;98603.19;;;10.33;79.93
76726;BME280;65651;53.154;17.916;2023-03-14T06:08:26;98597.13;;;10.41;79.68
76726;BME280;65651;53.154;17.916;2023-03-14T06:10:54;98603.12;;;10.44;79.54
76726;BME280;65651;53.154;17.916;2023-03-14T06:13:26;98615.42;;;10.43;79.43
76726;BME280;65651;53.154;17.916;2023-03-14T06:15:53;98625.80;;;10.41;79.03
76726;BME280;65651;53.154;17.916;2023-03-14T06:18:20;98627.09;;;10.40;78.73
76726;BME280;65651;53.154;17.916;2023-03-14T06:20:48;98629.70;;;10.40;78.78
76726;BME280;65651;53.154;17.916;2023-03-14T06:23:22;98633.42;;;10.42;78.44
76726;BME280;65651;53.154;17.916;2023-03-14T06:25:51;98629.54;;;10.45;78.36
76726;BME280;65651;53.154;17.916;2023-03-14T06:28:18;98636.88;;;10.49;77.91
76726;BME280;65651;53.154;17.916;2023-03-14T06:30:45;98635.27;;;10.53;77.85
76726;BME280;65651;53.154;17.916;2023-03-14T06:33:13;98639.00;;;10.59;77.89
76726;BME280;65651;53.154;17.916;2023-03-14T06:35:41;98644.65;;;10.65;77.71
76726;BME280;65651;53.154;17.916;2023-03-14T06:38:09;98635.44;;;10.74;77.20
76726;BME280;65651;53.154;17.916;2023-03-14T06:40:36;98636.73;;;10.81;77.00
76726;BME280;65651;53.154;17.916;2023-03-14T06:43:11;98632.14;;;10.87;77.22
76726;BME280;65651;53.154;17.916;2023-03-14T06:45:40;98631.58;;;10.91;76.79
76726;BME280;65651;53.154;17.916;2023-03-14T06:48:07;98636.67;;;10.91;76.67
76726;BME280;65651;53.154;17.916;2023-03-14T06:50:48;98633.63;;;10.88;76.73
76726;BME280;65651;53.154;17.916;2023-03-14T06:53:15;98629.96;;;10.85;76.72
76726;BME280;65651;53.154;17.916;2023-03-14T06:55:43;98627.85;;;10.85;76.41
76726;BME280;65651;53.154;17.916;2023-03-14T06:58:13;98621.96;;;10.83;76.10
76726;BME280;65651;53.154;17.916;2023-03-14T07:00:45;98614.38;;;10.83;76.26
76726;BME280;65651;53.154;17.916;2023-03-14T07:03:16;98624.16;;;10.85;76.04
76726;BME280;65651;53.154;17.916;2023-03-14T07:05:46;98624.01;;;10.98;75.87
76726;BME280;65651;53.154;17.916;2023-03-14T07:08:14;98618.69;;;11.18;75.80
76726;BME280;65651;53.154;17.916;2023-03-14T07:10:41;98616.93;;;11.55;75.35
76726;BME280;65651;53.154;17.916;2023-03-14T07:13:10;98610.45;;;11.78;74.65
76726;BME280;65651;53.154;17.916;2023-03-14T07:15:45;98616.94;;;11.78;74.34
76726;BME280;65651;53.154;17.916;2023-03-14T07:18:12;98614.33;;;12.03;73.87
76726;BME280;65651;53.154;17.916;2023-03-14T07:20:39;98618.66;;;12.10;73.49
76726;BME280;65651;53.154;17.916;2023-03-14T07:23:07;98606.44;;;12.42;72.85
76726;BME280;65651;53.154;17.916;2023-03-14T07:25:41;98603.29;;;12.66;72.63
76726;BME280;65651;53.154;17.916;2023-03-14T07:28:09;98607.52;;;12.69;72.45
76726;BME280;65651;53.154;17.916;2023-03-14T07:30:37;98610.14;;;13.04;71.77
76726;BME280;65651;53.154;17.916;2023-03-14T07:33:10;98618.40;;;12.86;72.30
76726;BME280;65651;53.154;17.916;2023-03-14T07:35:38;98614.05;;;12.73;72.46
76726;BME280;65651;53.154;17.916;2023-03-14T07:38:06;98625.48;;;12.55;71.66
76726;BME280;65651;53.154;17.916;2023-03-14T07:40:37;98619.89;;;12.35;71.99
76726;BME280;65651;53.154;17.916;2023-03-14T07:43:05;98611.59;;;12.30;71.80
76726;BME280;65651;53.154;17.916;2023-03-14T07:45:46;98619.98;;;12.32;71.18
76726;BME280;65651;53.154;17.916;2023-03-14T07:48:13;98612.35;;;12.30;71.46
76726;BME280;65651;53.154;17.916;2023-03-14T07:50:41;98613.98;;;12.24;71.39
76726;BME280;65651;53.154;17.916;2023-03-14T07:53:08;98615.24;;;12.17;71.45
76726;BME280;65651;53.154;17.916;2023-03-14T07:55:35;98601.52;;;12.16;71.36
76726;BME280;65651;53.154;17.916;2023-03-14T07:58:02;98602.33;;;12.16;71.20
76726;BME280;65651;53.154;17.916;2023-03-14T08:00:30;98595.02;;;12.18;71.15
76726;BME280;65651;53.154;17.916;2023-03-14T08:02:57;98600.54;;;12.20;71.35
76726;BME280;65651;53.154;17.916;2023-03-14T08:05:25;98598.66;;;12.19;71.38
76726;BME280;65651;53.154;17.916;2023-03-14T08:07:52;98596.09;;;12.19;71.50
76726;BME280;65651;53.154;17.916;2023-03-14T08:10:19;98596.46;;;12.14;71.42
76726;BME280;65651;53.154;17.916;2023-03-14T08:12:57;98582.00;;;12.04;71.33
76726;BME280;65651;53.154;17.916;2023-03-14T08:15:26;98577.07;;;11.98;71.54
76726;BME280;65651;53.154;17.916;2023-03-14T08:17:54;98575.52;;;12.00;71.64
76726;BME280;65651;53.154;17.916;2023-03-14T08:20:24;98584.56;;;11.94;71.36
76726;BME280;65651;53.154;17.916;2023-03-14T08:22:51;98586.33;;;11.88;71.44
76726;BME280;65651;53.154;17.916;2023-03-14T08:25:19;98584.34;;;11.85;71.55
76726;BME280;65651;53.154;17.916;2023-03-14T08:27:46;98586.83;;;11.88;71.72
76726;BME280;65651;53.154;17.916;2023-03-14T08:30:14;98580.26;;;11.99;71.49
76726;BME280;65651;53.154;17.916;2023-03-14T08:32:42;98569.15;;;12.17;71.66
76726;BME280;65651;53.154;17.916;2023-03-14T08:35:10;98576.14;;;12.27;71.32
76726;BME280;65651;53.154;17.916;2023-03-14T08:37:38;98587.67;;;12.23;71.06
76726;BME280;65651;53.154;17.916;2023-03-14T08:40:06;98605.35;;;12.15;71.11
76726;BME280;65651;53.154;17.916;2023-03-14T08:42:36;98611.73;;;12.05;71.28
76726;BME280;65651;53.154;17.916;2023-03-14T08:45:04;98610.32;;;11.93;71.25
76726;BME280;65651;53.154;17.916;2023-03-14T08:47:32;98609.15;;;11.81;71.45
76726;BME280;65651;53.154;17.916;2023-03-14T08:49:59;98612.75;;;11.69;71.39
76726;BME280;65651;53.154;17.916;2023-03-14T08:52:27;98617.52;;;11.56;71.72
76726;BME280;65651;53.154;17.916;2023-03-14T08:54:54;98625.92;;;11.45;71.84
76726;BME280;65651;53.154;17.916;2023-03-14T08:57:21;98625.94;;;11.38;71.76
76726;BME280;65651;53.154;17.916;2023-03-14T08:59:56;98629.41;;;11.35;72.03
76726;BME280;65651;53.154;17.916;2023-03-14T09:02:25;98630.38;;;11.33;72.25
76726;BME280;65651;53.154;17.916;2023-03-14T09:04:53;98631.14;;;11.36;72.19
76726;BME280;65651;53.154;17.916;2023-03-14T09:07:20;98637.63;;;11.37;72.15
76726;BME280;65651;53.154;17.916;2023-03-14T09:09:47;98635.28;;;11.41;72.14
76726;BME280;65651;53.154;17.916;2023-03-14T09:12:15;98626.08;;;11.52;72.08
76726;BME280;65651;53.154;17.916;2023-03-14T09:14:43;98619.43;;;11.71;71.89
76726;BME280;65651;53.154;17.916;2023-03-14T09:17:13;98624.33;;;11.89;71.93
76726;BME280;65651;53.154;17.916;2023-03-14T09:19:41;98611.86;;;12.11;71.74
76726;BME280;65651;53.154;17.916;2023-03-14T09:22:10;98603.88;;;12.35;71.14
76726;BME280;65651;53.154;17.916;2023-03-14T09:24:38;98609.43;;;12.53;70.81
76726;BME280;65651;53.154;17.916;2023-03-14T09:27:07;98597.56;;;12.75;70.78
76726;BME280;65651;53.154;17.916;2023-03-14T09:29:34;98598.00;;;13.06;70.50
76726;BME280;65651;53.154;17.916;2023-03-14T09:32:02;98596.77;;;13.47;70.30
76726;BME280;65651;53.154;17.916;2023-03-14T09:34:30;98597.33;;;13.83;69.87
76726;BME280;65651;53.154;17.916;2023-03-14T09:36:57;98596.06;;;14.06;69.20
76726;BME280;65651;53.154;17.916;2023-03-14T09:39:25;98602.66;;;14.17;68.60
76726;BME280;65651;53.154;17.916;2023-03-14T09:41:55;98604.05;;;14.15;68.56
76726;BME280;65651;53.154;17.916;2023-03-14T09:44:28;98605.84;;;14.07;68.33
76726;BME280;65651;53.154;17.916;2023-03-14T09:47:01;98606.93;;;13.90;67.85
76726;BME280;65651;53.154;17.916;2023-03-14T09:49:39;98603.22;;;13.68;67.83
76726;BME280;65651;53.154;17.916;2023-03-14T09:52:30;98606.46;;;13.50;67.82
76726;BME280;65651;53.154;17.916;2023-03-14T09:55:01;98605.05;;;13.36;67.85
76726;BME280;65651;53.154;17.916;2023-03-14T09:57:32;98606.16;;;13.23;68.13
76726;BME280;65651;53.154;17.916;2023-03-14T10:00:06;98611.79;;;13.14;68.29
76726;BME280;65651;53.154;17.916;2023-03-14T10:02:45;98613.38;;;13.09;68.23
76726;BME280;65651;53.154;17.916;2023-03-14T10:05:17;98613.30;;;13.03;68.36
76726;BME280;65651;53.154;17.916;2023-03-14T10:07:45;98615.86;;;12.95;68.35
76726;BME280;65651;53.154;17.916;2023-03-14T10:10:24;98615.12;;;12.86;68.06
76726;BME280;65651;53.154;17.916;2023-03-14T10:13:05;98612.80;;;12.81;68.13
76726;BME280;65651;53.154;17.916;2023-03-14T10:15:38;98608.97;;;12.84;68.25
76726;BME280;65651;53.154;17.916;2023-03-14T10:18:11;98612.48;;;12.95;68.27
76726;BME280;65651;53.154;17.916;2023-03-14T10:20:47;98618.52;;;13.01;68.17
76726;BME280;65651;53.154;17.916;2023-03-14T10:25:44;98612.17;;;13.06;67.38
76726;BME280;65651;53.154;17.916;2023-03-14T10:28:30;98612.70;;;13.17;67.52
76726;BME280;65651;53.154;17.916;2023-03-14T10:30:58;98606.33;;;13.27;67.19
76726;BME280;65651;53.154;17.916;2023-03-14T10:33:28;98607.45;;;13.41;67.16
76726;BME280;65651;53.154;17.916;2023-03-14T10:38:32;98600.39;;;13.68;66.47
76726;BME280;65651;53.154;17.916;2023-03-14T10:41:20;98597.70;;;13.68;65.86
76726;BME280;65651;53.154;17.916;2023-03-14T10:43:57;98592.22;;;13.63;65.93
76726;BME280;65651;53.154;17.916;2023-03-14T10:46:27;98591.11;;;13.63;66.24
76726;BME280;65651;53.154;17.916;2023-03-14T10:49:31;98585.91;;;13.60;66.15
76726;BME280;65651;53.154;17.916;2023-03-14T10:52:23;98595.17;;;13.54;65.74
76726;BME280;65651;53.154;17.916;2023-03-14T10:55:02;98589.48;;;13.51;65.66
76726;BME280;65651;53.154;17.916;2023-03-14T10:57:30;98588.70;;;13.52;65.54
76726;BME280;65651;53.154;17.916;2023-03-14T10:59:57;98593.77;;;13.54;65.78
76726;BME280;65651;53.154;17.916;2023-03-14T11:07:48;98600.49;;;13.32;65.27
76726;BME280;65651;53.154;17.916;2023-03-14T11:10:22;98605.67;;;13.31;65.53
76726;BME280;65651;53.154;17.916;2023-03-14T11:35:14;98610.43;;;14.04;64.93
76726;BME280;65651;53.154;17.916;2023-03-14T11:37:54;98610.91;;;14.02;64.43
76726;BME280;65651;53.154;17.916;2023-03-14T11:40:26;98613.26;;;13.99;63.88
76726;BME280;65651;53.154;17.916;2023-03-14T11:43:04;98602.91;;;14.03;63.67
76726;BME280;65651;53.154;17.916;2023-03-14T11:45:35;98604.45;;;14.09;63.42
76726;BME280;65651;53.154;17.916;2023-03-14T11:50:48;98600.65;;;14.24;63.20
76726;BME280;65651;53.154;17.916;2023-03-14T11:56:16;98609.36;;;14.18;63.11
76726;BME280;65651;53.154;17.916;2023-03-14T11:58:54;98599.67;;;14.15;63.21
76726;BME280;65651;53.154;17.916;2023-03-14T12:01:30;98601.39;;;14.13;63.34
76726;BME280;65651;53.154;17.916;2023-03-14T12:04:08;98608.98;;;14.05;63.13
76726;BME280;65651;53.154;17.916;2023-03-14T12:06:47;98603.17;;;13.86;63.23
76726;BME280;65651;53.154;17.916;2023-03-14T12:09:18;98601.80;;;13.71;63.43
76726;BME280;65651;53.154;17.916;2023-03-14T12:16:59;98583.83;;;13.32;64.08
76726;BME280;65651;53.154;17.916;2023-03-14T12:19:39;98586.66;;;13.28;64.19
76726;BME280;65651;53.154;17.916;2023-03-14T12:22:24;98586.38;;;13.18;64.43
76726;BME280;65651;53.154;17.916;2023-03-14T12:25:00;98581.14;;;13.13;64.66
76726;BME280;65651;53.154;17.916;2023-03-14T12:30:34;98578.97;;;13.59;64.20
76726;BME280;65651;53.154;17.916;2023-03-14T12:36:11;98572.91;;;14.13;63.64
76726;BME280;65651;53.154;17.916;2023-03-14T12:38:56;98572.59;;;14.22;63.50
76726;BME280;65651;53.154;17.916;2023-03-14T12:47:00;98563.63;;;14.06;63.42
76726;BME280;65651;53.154;17.916;2023-03-14T12:49:52;98563.39;;;14.10;63.29
76726;BME280;65651;53.154;17.916;2023-03-14T12:52:41;98562.53;;;14.15;63.10
76726;BME280;65651;53.154;17.916;2023-03-14T12:55:24;98566.35;;;14.12;63.47
76726;BME280;65651;53.154;17.916;2023-03-14T13:00:39;98565.41;;;14.33;63.32
76726;BME280;65651;53.154;17.916;2023-03-14T13:03:47;98566.27;;;14.29;63.09
76726;BME280;65651;53.154;17.916;2023-03-14T13:06:52;98566.82;;;14.15;63.27
76726;BME280;65651;53.154;17.916;2023-03-14T13:12:03;98559.55;;;13.75;63.05
76726;BME280;65651;53.154;17.916;2023-03-14T13:14:41;98556.22;;;13.67;63.54
76726;BME280;65651;53.154;17.916;2023-03-14T13:17:15;98558.87;;;13.68;63.45
76726;BME280;65651;53.154;17.916;2023-03-14T13:19:50;98567.62;;;13.74;63.42
76726;BME280;65651;53.154;17.916;2023-03-14T13:22:24;98567.31;;;13.78;63.34
76726;BME280;65651;53.154;17.916;2023-03-14T13:25:04;98568.52;;;13.69;63.45
76726;BME280;65651;53.154;17.916;2023-03-14T13:27:34;98561.27;;;13.64;63.65
76726;BME280;65651;53.154;17.916;2023-03-14T13:32:47;98561.46;;;13.56;63.83
76726;BME280;65651;53.154;17.916;2023-03-14T13:35:38;98559.91;;;13.52;63.96
76726;BME280;65651;53.154;17.916;2023-03-14T13:38:19;98559.84;;;13.47;64.21
76726;BME280;65651;53.154;17.916;2023-03-14T13:40:47;98561.59;;;13.48;64.36
76726;BME280;65651;53.154;17.916;2023-03-14T13:43:32;98567.89;;;13.45;64.45
76726;BME280;65651;53.154;17.916;2023-03-14T13:46:22;98564.55;;;13.38;64.42
76726;BME280;65651;53.154;17.916;2023-03-14T13:48:53;98573.25;;;13.34;64.60
76726;BME280;65651;53.154;17.916;2023-03-14T13:51:22;98568.65;;;13.29;64.67
76726;BME280;65651;53.154;17.916;2023-03-14T13:53:54;98566.29;;;13.27;64.63
76726;BME280;65651;53.154;17.916;2023-03-14T13:56:24;98567.45;;;13.25;64.56
76726;BME280;65651;53.154;17.916;2023-03-14T13:58:52;98568.50;;;13.27;64.56
76726;BME280;65651;53.154;17.916;2023-03-14T14:03:52;98558.64;;;13.25;64.51
76726;BME280;65651;53.154;17.916;2023-03-14T14:06:35;98550.44;;;13.31;64.49
76726;BME280;65651;53.154;17.916;2023-03-14T14:11:56;98554.19;;;13.64;64.14
76726;BME280;65651;53.154;17.916;2023-03-14T14:14:59;98554.90;;;13.80;64.10
76726;BME280;65651;53.154;17.916;2023-03-14T14:17:40;98555.39;;;13.94;63.79
76726;BME280;65651;53.154;17.916;2023-03-14T14:20:38;98549.09;;;13.96;63.74
76726;BME280;65651;53.154;17.916;2023-03-14T14:23:22;98541.57;;;13.95;63.69
76726;BME280;65651;53.154;17.916;2023-03-14T14:25:56;98539.70;;;13.99;63.75
76726;BME280;65651;53.154;17.916;2023-03-14T14:28:30;98538.92;;;14.03;63.41
76726;BME280;65651;53.154;17.916;2023-03-14T14:31:24;98541.80;;;14.04;63.03
76726;BME280;65651;53.154;17.916;2023-03-14T14:34:03;98543.02;;;14.03;62.91
76726;BME280;65651;53.154;17.916;2023-03-14T14:41:51;98539.86;;;14.13;62.55
76726;BME280;65651;53.154;17.916;2023-03-14T14:44:30;98539.00;;;14.15;62.76
76726;BME280;65651;53.154;17.916;2023-03-14T14:47:02;98536.27;;;14.14;62.95